Airfield :







YOU CAN JOIN US ON...

 
LOGIN :

Register | Disclaimer

   EN    FR    IT 

 









Legend :    VFR   Marginal VFR   IFR   Intensive IFR   Very Intensive IFR
Visi :
Ceiling :
>= 8 km
>= 3000ft
5 to 8 km
1000 to 3000 ft
1500m to 5 km
500 to 1000 ft
800 to 1500m
200 to 500 ft
< 800m
< 200 ft
Symbols :   Thunderstorms  Fog  Heavy snow  Heavy precipitations  Wind > 20 kt







- Airport Elevation : 1442 ft
- IATA code : ZUM


CZUM - Churchill Falls

CURRENT METAR :
  • 231400Z AUTO 03009KT 2SM -SN FEW023 OVC029 M12/M16 A2954 RMK SLP042

EXPIRED METARs :
  • 231354Z AUTO 03008KT 2 1/4SM -SN BKN029 OVC036 M12/M16 A2955 RMK SLP042
  • 231338Z AUTO 02009KT 5SM -SN OVC031 M13/M17 A2955 RMK SLP043
  • 231332Z AUTO 04008KT 6SM -SN OVC029 M13/M17 A2955 RMK SLP043
  • 231322Z AUTO 02008KT 3SM -SN OVC027 M13/M17 A2956 RMK SLP047
  • 231304Z AUTO 03010KT 1 3/4SM -SN OVC025 M14/M17 A2957 RMK SLP049
  • 231238Z AUTO 01011KT 1 1/2SM -SN OVC023 M14/M18 A2957 RMK SLP052
  • 231223Z AUTO 02010KT 2 1/4SM -SN OVC025 M15/M18 A2958 RMK SLP054
  • 231208Z AUTO 02008KT 1 1/2SM -SN OVC021 M15/M18 A2959 RMK SLP058
  • 231157Z AUTO 02008KT 1 1/4SM -SN BKN021 OVC033 M15/M18 A2960 RMK SLP060
  • 231150Z AUTO 02008KT 1 3/4SM -SN BKN021 OVC033 M15/M18 A2961 RMK SLP062
  • 231120Z AUTO 02007KT 3SM -SN SCT024 OVC033 M15/M18 A2961 RMK SLP066

TAF TAF CZUM
Valid from the 23 at 14:00 until the 24 at 02:00 UTC


231339Z 2314/2402 03010KT 1SM -SN OVC015
TEMPO 2314/2318 4SM -SN OVC025
FM231800 36010G20KT 6SM -SN OVC030
TEMPO 2318/2324 3SM -SN OVC020
FM240000 32008KT P6SM BKN030 RMK FCST BASED ON AUTO OBS. NXT FCST BY 232000Z
CZQX FIR / North America



MET'MAP, your aeronautical weather chart ! - Copyright ORBIFLY December 2007 - Disclaimer

ORBIFLY MET'MAP TEAM :

Programming & Development : Alexandra Zaïnal
Concept & Development : Baudouin d'Aumeries
Co-Development & Prog : Marc-Olivier Méhu
Technical & hardware support : Manuel Goepfert

Contact : metmap@orbifly.com




SOURCES & CREDITS :

   NOAA